• Join FlightAware (Why Join?)
  • Login
  • US Flag 
03:05PM EDT


 

Airport Tracker/Info


-or-


 

Live Flight TrackerFlight Track Log ✈ UAL258 ✈ 19-Jul-2013 ✈ KLAS - KSFO

Flight Track Log - Related Links

Times and Time Zones

All times are in EDT time to prevent confusion due to time zone crossing. See the UAL258 flight status page for this flight to view local times or setup timezone preferences in your user account.

Time Position Orientation Groundspeed Altitude Reporting Facility
EDT Latitude Longitude Course Direction KTS MPH feet Rate Location/Type
02:20PM 36.0753 -115.1739 270° West 126 145 3,100  Level Los Angeles Center
02:22PM 36.0617 -115.2608 259° West 238 274 5,400 1,800 Climbing Los Angeles Center
02:23PM 35.8931 -115.3939 207° Southwest  Level FlightAware Approximate
02:23PM 35.9906 -115.2919 199° South 289 333 7,000  Level Los Angeles Center
02:24PM 35.8834 -115.5264 270° West  Level FlightAware Approximate
02:24PM 35.9217 -115.3606 219° Southwest 299 344 11,100  Level Los Angeles Center
02:25PM 35.8834 -115.6663 270° West  Level FlightAware Approximate
02:25PM 35.8836 -115.4658 246° West 348 400 12,800  Level Los Angeles Center
02:26PM 35.8834 -115.8062 270° West  Level FlightAware Approximate
02:26PM 35.8903 -115.6125 273° West 397 457 16,400  Level Los Angeles Center
02:27PM 35.8911 -115.7644 270° West 413 475 19,700 2,820 Climbing Los Angeles Center
02:28PM 35.8956 -115.9100 272° West 425 489 22,300 2,220 Climbing Los Angeles Center
02:29PM 35.9739 -116.0253 310° West 444 511 24,400 1,980 Climbing Los Angeles Center
02:30PM 36.0697 -116.1422 315° West 451 519 26,500 1,440 Climbing Los Angeles Center
02:31PM 36.1550 -116.2450 316° Northwest 459 528 27,500 960 Climbing Los Angeles Center
02:32PM 36.2483 -116.3592 315° West 471 542 28,500 960 Climbing Los Angeles Center
02:33PM 36.3617 -116.4969 316° Northwest 477 549 29,600 900 Climbing Los Angeles Center
02:34PM 36.4569 -116.6128 316° Northwest 481 554 30,400 960 Climbing Los Angeles Center
02:35PM 36.5636 -116.7414 316° Northwest 486 559 31,700 720 Climbing Los Angeles Center
02:36PM 36.6761 -116.8317 327° Northwest 482 555 32,000 120 Climbing Los Angeles Center
02:37PM 36.7781 -116.9083 329° Northwest 480 552 32,000  Level Los Angeles Center
02:38PM 36.9047 -117.0047 329° Northwest 479 551 32,000  Level Los Angeles Center
02:39PM 37.0183 -117.0925 328° Northwest 478 550 32,000  Level Los Angeles Center
02:40PM 37.1092 -117.1631 328° Northwest 481 554 32,000  Level Oakland Center
02:41PM 37.2239 -117.2528 328° Northwest 482 555 32,000  Level Oakland Center
02:42PM 37.3497 -117.3767 322° Northwest 488 562 32,000  Level Oakland Center
02:43PM 37.3864 -117.5311 287° West 468 539 32,000  Level Oakland Center
02:44PM 37.4011 -117.6947 277° West 468 539 32,000  Level Oakland Center
02:45PM 37.4142 -117.8578 276° West 467 537 32,000  Level Oakland Center
02:46PM 37.4275 -118.0217 276° West 469 540 32,000  Level Oakland Center
02:47PM 37.4414 -118.1878 276° West 474 545 32,000  Level Oakland Center
02:48PM 37.4536 -118.3525 275° West 472 543 32,000  Level Oakland Center
02:49PM 37.4667 -118.5175 276° West 473 544 32,000  Level Oakland Center
02:50PM 37.4786 -118.6814 275° West 471 542 32,000 -60 Level Oakland Center
02:51PM 37.4911 -118.8533 275° West 469 540 31,900 -60 Descending Oakland Center
02:52PM 37.5033 -119.0161 275° West 470 541 31,900  Level Oakland Center
02:53PM 37.5186 -119.2139 276° West 475 547 32,000  Climbing Oakland Center
02:54PM 37.5292 -119.3767 275° West 471 542 32,000  Level Oakland Center
02:56PM 37.5411 -119.5378 275° West 473 544 32,000  Level Oakland Center
02:57PM 37.5514 -119.7028 275° West 473 544 32,000  Level Oakland Center
02:58PM 37.5617 -119.8661 275° West 470 541 32,000  Level Oakland Center
02:59PM 37.5747 -120.0636 275° West 471 542 32,000 -60 Level Oakland Center
03:00PM 37.5861 -120.2269 275° West 469 540 31,900 -540 Descending Oakland Center
03:01PM 37.5956 -120.3906 274° West 468 539 31,000 -1,560 Descending Oakland Center
03:02PM 37.6044 -120.5558 274° West 470 541 28,700 -2,280 Descending Oakland Center
03:03PM 37.6131 -120.7150 274° West 456 525 26,400 -2,940 Descending Oakland Center
03:04PM 37.6167 -120.8833 272° West 403 464 22,600 -3,300 Descending Northern Cal TRACON
03:05PM 37.6167 -121.0167 270° West 391 450 19,600 -2,820 Descending Northern Cal TRACON
03:06PM 37.6000 -121.1500 261° West 386 444 17,000 -2,700 Descending Northern Cal TRACON
03:07PM 37.5833 -121.2667 260° West 376 433 14,300 -2,400 Descending Northern Cal TRACON
03:08PM 37.5833 -121.4000 270° West 359 413 12,200 -1,560 Descending Northern Cal TRACON
03:09PM 37.5667 -121.5167 260° West 328 377 11,200 -600 Descending Northern Cal TRACON
03:10PM 37.5500 -121.6167 258° West 314 361 11,000 -540 Descending Northern Cal TRACON
03:11PM 37.5167 -121.7167 247° West 284 327 10,200 -1,140 Descending Northern Cal TRACON
03:12PM 37.5000 -121.8000 256° West 246 283 8,800 -1,260 Descending Northern Cal TRACON
03:13PM 37.4833 -121.8833 256° West 258 297 7,700 -1,140 Descending Northern Cal TRACON
03:14PM 37.5000 -121.9667 284° West 249 287 6,600 -1,440 Descending Northern Cal TRACON
03:15PM 37.5167 -122.0500 284° West 241 277 4,900 -1,740 Descending Northern Cal TRACON